AFL5011 OMDB-OKKK
Flight info
| Callsign | AFL5011 |
|---|---|
| Flight time | 1h 16m |
| Altitude | 36000 |
| Route | RIDAP M557 TUMAK M600 KUMBO A453 DEBTI |
| Aircraft | B77W/H-SDE1E2E3FGHIJ2J3J4J5M1RWXY/LB1D1 |
Departure
| Time | 2026-04-22 13:15 |
|---|---|
| Airport | Dubai International Airport (OMDB) |
Arrival
| Time | 2026-04-22 14:31 |
|---|---|
| Airport | Kuwait International Airport (OKKK) |
| Time | Latitude | Longitude | Altitude | Speed | Heading |
|---|---|---|---|---|---|
| 2026-04-22 12:36 | 25.25197 | 55.35719 | 18 ft | 0 kts | 213° |
| 2026-04-22 12:59 | 25.25199 | 55.35722 | 17 ft | 2 kts | 212° |
| 2026-04-22 12:59 | 25.25213 | 55.35732 | 18 ft | 2 kts | 217° |
| 2026-04-22 12:59 | 25.25226 | 55.35742 | 20 ft | 2 kts | 218° |
| 2026-04-22 12:59 | 25.25239 | 55.35754 | 21 ft | 2 kts | 222° |
| 2026-04-22 13:00 | 25.25251 | 55.35766 | 17 ft | 2 kts | 230° |
| 2026-04-22 13:00 | 25.25260 | 55.35781 | 19 ft | 2 kts | 247° |
| 2026-04-22 13:00 | 25.25264 | 55.35798 | 20 ft | 2 kts | 286° |
| 2026-04-22 13:00 | 25.25260 | 55.35809 | 22 ft | 0 kts | 301° |
| 2026-04-22 13:05 | 25.25268 | 55.35795 | 19 ft | 7 kts | 301° |
| 2026-04-22 13:05 | 25.25311 | 55.35717 | 17 ft | 17 kts | 302° |
| 2026-04-22 13:05 | 25.25372 | 55.35606 | 16 ft | 17 kts | 302° |
| 2026-04-22 13:06 | 25.25433 | 55.35496 | 17 ft | 17 kts | 300° |
| 2026-04-22 13:06 | 25.25494 | 55.35386 | 18 ft | 17 kts | 298° |
| 2026-04-22 13:06 | 25.25535 | 55.35312 | 19 ft | 17 kts | 303° |
| 2026-04-22 13:06 | 25.25597 | 55.35203 | 23 ft | 17 kts | 304° |
| 2026-04-22 13:07 | 25.25700 | 55.35176 | 23 ft | 17 kts | 25° |
| 2026-04-22 13:07 | 25.25825 | 55.35257 | 9 ft | 23 kts | 31° |
| 2026-04-22 13:07 | 25.25959 | 55.35355 | 9 ft | 23 kts | 46° |
| 2026-04-22 13:07 | 25.25983 | 55.35521 | 8 ft | 23 kts | 108° |
| 2026-04-22 13:08 | 25.25911 | 55.35679 | 7 ft | 23 kts | 122° |
| 2026-04-22 13:08 | 25.25824 | 55.35828 | 8 ft | 23 kts | 122° |
| 2026-04-22 13:08 | 25.25739 | 55.35978 | 10 ft | 23 kts | 121° |
| 2026-04-22 13:08 | 25.25654 | 55.36129 | 13 ft | 23 kts | 121° |
| 2026-04-22 13:09 | 25.25571 | 55.36281 | 14 ft | 23 kts | 121° |
| 2026-04-22 13:09 | 25.25488 | 55.36432 | 14 ft | 23 kts | 121° |
| 2026-04-22 13:09 | 25.25400 | 55.36592 | 12 ft | 27 kts | 121° |
| 2026-04-22 13:09 | 25.25297 | 55.36775 | 15 ft | 28 kts | 122° |
| 2026-04-22 13:10 | 25.25247 | 55.36869 | 16 ft | 27 kts | 122° |
| 2026-04-22 13:10 | 25.25208 | 55.36937 | 17 ft | 14 kts | 121° |
| 2026-04-22 13:10 | 25.25157 | 55.37030 | 23 ft | 14 kts | 122° |
| 2026-04-22 13:10 | 25.25104 | 55.37123 | 25 ft | 14 kts | 121° |
| 2026-04-22 13:11 | 25.25051 | 55.37215 | 27 ft | 14 kts | 122° |
| 2026-04-22 13:11 | 25.25002 | 55.37310 | 28 ft | 14 kts | 119° |
| 2026-04-22 13:11 | 25.24951 | 55.37403 | 30 ft | 14 kts | 123° |
| 2026-04-22 13:11 | 25.24899 | 55.37496 | 29 ft | 14 kts | 120° |
| 2026-04-22 13:12 | 25.24848 | 55.37590 | 28 ft | 14 kts | 121° |
| 2026-04-22 13:12 | 25.24796 | 55.37683 | 30 ft | 14 kts | 121° |
| 2026-04-22 13:12 | 25.24744 | 55.37776 | 30 ft | 14 kts | 121° |
| 2026-04-22 13:12 | 25.24694 | 55.37865 | 30 ft | 13 kts | 122° |
| 2026-04-22 13:13 | 25.24689 | 55.37960 | 33 ft | 6 kts | 50° |
| 2026-04-22 13:13 | 25.24690 | 55.37961 | 33 ft | 0 kts | 47° |
| 2026-04-22 13:14 | 25.24697 | 55.37967 | 36 ft | 7 kts | 39° |
| 2026-04-22 13:14 | 25.24781 | 55.38005 | 38 ft | 15 kts | 350° |
| 2026-04-22 13:14 | 25.24829 | 55.37972 | 37 ft | 0 kts | 305° |
| 2026-04-22 13:15 | 25.24839 | 55.37954 | 35 ft | 15 kts | 302° |
| 2026-04-22 13:15 | 25.25085 | 55.37520 | 37 ft | 120 kts | 301° |
| 2026-04-22 13:15 | 25.25696 | 55.36421 | 103 ft | 209 kts | 304° |
| 2026-04-22 13:15 | 25.26571 | 55.34954 | 976 ft | 233 kts | 309° |
| 2026-04-22 13:16 | 25.27481 | 55.33463 | 2788 ft | 234 kts | 303° |
| 2026-04-22 13:16 | 25.28490 | 55.31777 | 3591 ft | 290 kts | 302° |
| 2026-04-22 13:16 | 25.29710 | 55.29724 | 4040 ft | 353 kts | 302° |
| 2026-04-22 13:16 | 25.31145 | 55.27295 | 4112 ft | 380 kts | 301° |
| 2026-04-22 13:17 | 25.32546 | 55.24932 | 4336 ft | 355 kts | 302° |
| 2026-04-22 13:17 | 25.33878 | 55.22696 | 4230 ft | 341 kts | 302° |
| 2026-04-22 13:17 | 25.35155 | 55.20554 | 4121 ft | 327 kts | 302° |
| 2026-04-22 13:17 | 25.36374 | 55.18511 | 4251 ft | 306 kts | 301° |
| 2026-04-22 13:18 | 25.37403 | 55.16602 | 4533 ft | 274 kts | 289° |
| 2026-04-22 13:18 | 25.37543 | 55.14604 | 4682 ft | 260 kts | 253° |
| 2026-04-22 13:18 | 25.36889 | 55.12779 | 5272 ft | 257 kts | 254° |
| 2026-04-22 13:18 | 25.36895 | 55.10798 | 6003 ft | 261 kts | 282° |
| 2026-04-22 13:19 | 25.37341 | 55.08874 | 6910 ft | 257 kts | 280° |
| 2026-04-22 13:19 | 25.37707 | 55.06955 | 7831 ft | 254 kts | 278° |
| 2026-04-22 13:19 | 25.38022 | 55.05041 | 8713 ft | 253 kts | 277° |
| 2026-04-22 13:19 | 25.38310 | 55.03105 | 9483 ft | 258 kts | 277° |
| 2026-04-22 13:20 | 25.38583 | 55.01126 | 10195 ft | 262 kts | 276° |
| 2026-04-22 13:20 | 25.38845 | 54.99112 | 10914 ft | 267 kts | 276° |
| 2026-04-22 13:20 | 25.39106 | 54.97020 | 11325 ft | 287 kts | 276° |
| 2026-04-22 13:20 | 25.39380 | 54.94736 | 11526 ft | 313 kts | 276° |
| 2026-04-22 13:21 | 25.39669 | 54.92282 | 11733 ft | 339 kts | 275° |
| 2026-04-22 13:21 | 25.39978 | 54.89604 | 11954 ft | 362 kts | 275° |
| 2026-04-22 13:21 | 25.40302 | 54.86800 | 12547 ft | 373 kts | 275° |
| 2026-04-22 13:21 | 25.40633 | 54.83930 | 13308 ft | 379 kts | 275° |
| 2026-04-22 13:22 | 25.40968 | 54.81024 | 14091 ft | 382 kts | 276° |
| 2026-04-22 13:22 | 25.41304 | 54.78106 | 14923 ft | 384 kts | 276° |
| 2026-04-22 13:22 | 25.41640 | 54.75162 | 15751 ft | 386 kts | 276° |
| 2026-04-22 13:22 | 25.41976 | 54.72201 | 16570 ft | 389 kts | 276° |
| 2026-04-22 13:23 | 25.42314 | 54.69216 | 17378 ft | 393 kts | 276° |
| 2026-04-22 13:23 | 25.42656 | 54.66208 | 18160 ft | 396 kts | 276° |
| 2026-04-22 13:23 | 25.43018 | 54.63174 | 18838 ft | 400 kts | 278° |
| 2026-04-22 13:23 | 25.43595 | 54.60146 | 19501 ft | 405 kts | 284° |
| 2026-04-22 13:24 | 25.44460 | 54.57168 | 20181 ft | 409 kts | 287° |
| 2026-04-22 13:24 | 25.45379 | 54.54175 | 20841 ft | 413 kts | 287° |
| 2026-04-22 13:24 | 25.46296 | 54.51142 | 21489 ft | 416 kts | 286° |
| 2026-04-22 13:24 | 25.47206 | 54.48086 | 22125 ft | 420 kts | 286° |
| 2026-04-22 13:25 | 25.48114 | 54.45006 | 22723 ft | 424 kts | 285° |
| 2026-04-22 13:25 | 25.49033 | 54.41884 | 23310 ft | 428 kts | 285° |
| 2026-04-22 13:25 | 25.49956 | 54.38745 | 23815 ft | 431 kts | 285° |
| 2026-04-22 13:25 | 25.50883 | 54.35593 | 24399 ft | 431 kts | 285° |
| 2026-04-22 13:26 | 25.51811 | 54.32431 | 24991 ft | 432 kts | 285° |
| 2026-04-22 13:26 | 25.52740 | 54.29268 | 25535 ft | 434 kts | 286° |
| 2026-04-22 13:26 | 25.53677 | 54.26078 | 26030 ft | 437 kts | 286° |
| 2026-04-22 13:26 | 25.54618 | 54.22872 | 26517 ft | 439 kts | 286° |
| 2026-04-22 13:27 | 25.55564 | 54.19655 | 27001 ft | 442 kts | 286° |
| 2026-04-22 13:27 | 25.56517 | 54.16411 | 27483 ft | 444 kts | 286° |
| 2026-04-22 13:27 | 25.57474 | 54.13149 | 27959 ft | 446 kts | 286° |
| 2026-04-22 13:27 | 25.58434 | 54.09875 | 28423 ft | 448 kts | 286° |
| 2026-04-22 13:28 | 25.59397 | 54.06584 | 28830 ft | 450 kts | 286° |
| 2026-04-22 13:28 | 25.60353 | 54.03274 | 29228 ft | 452 kts | 286° |
| 2026-04-22 13:28 | 25.61300 | 53.99958 | 29751 ft | 451 kts | 286° |
| 2026-04-22 13:28 | 25.62239 | 53.96647 | 30268 ft | 449 kts | 286° |
| 2026-04-22 13:29 | 25.63172 | 53.93356 | 30810 ft | 446 kts | 286° |
| 2026-04-22 13:29 | 25.64098 | 53.90094 | 31345 ft | 442 kts | 286° |
| 2026-04-22 13:29 | 25.65018 | 53.86854 | 31816 ft | 441 kts | 286° |
| 2026-04-22 13:29 | 25.65937 | 53.83617 | 32242 ft | 440 kts | 286° |
| 2026-04-22 13:30 | 25.66855 | 53.80376 | 32638 ft | 439 kts | 286° |
| 2026-04-22 13:30 | 25.67769 | 53.77151 | 33048 ft | 438 kts | 286° |
| 2026-04-22 13:30 | 25.68679 | 53.73940 | 33452 ft | 437 kts | 287° |
| 2026-04-22 13:30 | 25.69576 | 53.70768 | 33834 ft | 435 kts | 287° |
| 2026-04-22 13:31 | 25.70488 | 53.67538 | 34222 ft | 433 kts | 287° |
| 2026-04-22 13:31 | 25.71383 | 53.64356 | 34614 ft | 430 kts | 287° |
| 2026-04-22 13:31 | 25.72269 | 53.61196 | 35017 ft | 427 kts | 286° |
| 2026-04-22 13:31 | 25.73145 | 53.58066 | 35388 ft | 424 kts | 286° |
| 2026-04-22 13:32 | 25.74018 | 53.54951 | 35732 ft | 422 kts | 286° |
| 2026-04-22 13:32 | 25.75775 | 53.48682 | 35801 ft | 427 kts | 286° |
| 2026-04-22 13:33 | 25.77527 | 53.42457 | 35790 ft | 424 kts | 286° |
| 2026-04-22 13:33 | 25.79277 | 53.36219 | 35790 ft | 422 kts | 286° |
| 2026-04-22 13:34 | 25.81011 | 53.30007 | 35792 ft | 421 kts | 286° |
| 2026-04-22 13:34 | 25.82740 | 53.23802 | 35794 ft | 421 kts | 286° |
| 2026-04-22 13:35 | 25.84565 | 53.17628 | 35800 ft | 422 kts | 290° |
| 2026-04-22 13:35 | 25.86980 | 53.11680 | 35804 ft | 423 kts | 292° |
| 2026-04-22 13:36 | 25.89428 | 53.05735 | 35797 ft | 424 kts | 292° |
| 2026-04-22 13:36 | 25.91862 | 52.99765 | 35799 ft | 424 kts | 292° |
| 2026-04-22 13:37 | 25.94287 | 52.93786 | 35800 ft | 424 kts | 292° |
| 2026-04-22 13:37 | 25.96710 | 52.87801 | 35800 ft | 424 kts | 292° |
| 2026-04-22 13:38 | 25.99126 | 52.81819 | 35805 ft | 424 kts | 292° |
| 2026-04-22 13:38 | 26.02771 | 52.72861 | 35824 ft | 424 kts | 294° |
| 2026-04-22 13:39 | 26.05442 | 52.66992 | 35813 ft | 425 kts | 295° |
| 2026-04-22 13:39 | 26.08123 | 52.61130 | 35813 ft | 425 kts | 294° |
| 2026-04-22 13:40 | 26.10770 | 52.55244 | 35813 ft | 425 kts | 294° |
| 2026-04-22 13:40 | 26.13397 | 52.49407 | 35810 ft | 425 kts | 294° |
| 2026-04-22 13:41 | 26.16048 | 52.43538 | 35817 ft | 424 kts | 294° |
| 2026-04-22 13:41 | 26.18688 | 52.37666 | 35829 ft | 424 kts | 294° |
| 2026-04-22 13:42 | 26.21331 | 52.31784 | 35827 ft | 425 kts | 294° |
| 2026-04-22 13:42 | 26.23935 | 52.25879 | 35828 ft | 424 kts | 293° |
| 2026-04-22 13:43 | 26.26488 | 52.19952 | 35825 ft | 424 kts | 293° |
| 2026-04-22 13:43 | 26.29041 | 52.14025 | 35834 ft | 424 kts | 293° |
| 2026-04-22 13:44 | 26.31598 | 52.08104 | 35849 ft | 424 kts | 293° |
| 2026-04-22 13:44 | 26.34157 | 52.02180 | 35827 ft | 424 kts | 293° |
| 2026-04-22 13:45 | 26.36721 | 51.96247 | 35846 ft | 424 kts | 293° |
| 2026-04-22 13:45 | 26.38953 | 51.90174 | 35845 ft | 423 kts | 288° |
| 2026-04-22 13:46 | 26.41004 | 51.84019 | 35828 ft | 423 kts | 288° |
| 2026-04-22 13:46 | 26.43071 | 51.77868 | 35821 ft | 424 kts | 288° |
| 2026-04-22 13:47 | 26.45134 | 51.71712 | 35833 ft | 425 kts | 288° |
| 2026-04-22 13:47 | 26.47201 | 51.65531 | 35833 ft | 426 kts | 288° |
| 2026-04-22 13:48 | 26.49275 | 51.59325 | 35833 ft | 427 kts | 288° |
| 2026-04-22 13:48 | 26.51330 | 51.53163 | 35831 ft | 426 kts | 288° |
| 2026-04-22 13:49 | 26.53389 | 51.46962 | 35828 ft | 426 kts | 288° |
| 2026-04-22 13:49 | 26.55453 | 51.40732 | 35828 ft | 425 kts | 288° |
| 2026-04-22 13:50 | 26.57485 | 51.34583 | 35839 ft | 424 kts | 287° |
| 2026-04-22 13:50 | 26.59527 | 51.28408 | 35830 ft | 423 kts | 288° |
| 2026-04-22 13:51 | 26.61573 | 51.22246 | 35834 ft | 422 kts | 288° |
| 2026-04-22 13:51 | 26.63608 | 51.16104 | 35832 ft | 421 kts | 288° |
| 2026-04-22 13:52 | 26.64613 | 51.13057 | 35827 ft | 421 kts | 288° |
| 2026-04-22 13:52 | 26.66637 | 51.06916 | 35833 ft | 421 kts | 288° |
| 2026-04-22 13:53 | 26.68666 | 51.00784 | 35849 ft | 420 kts | 287° |
| 2026-04-22 13:53 | 26.70646 | 50.94627 | 35834 ft | 421 kts | 287° |
| 2026-04-22 13:54 | 26.72281 | 50.89497 | 35833 ft | 422 kts | 287° |
| 2026-04-22 13:54 | 26.74253 | 50.83312 | 35826 ft | 422 kts | 287° |
| 2026-04-22 13:55 | 26.76226 | 50.77123 | 35831 ft | 422 kts | 287° |
| 2026-04-22 13:55 | 26.78516 | 50.69917 | 35830 ft | 423 kts | 287° |
| 2026-04-22 13:56 | 26.80168 | 50.64723 | 35824 ft | 423 kts | 287° |
| 2026-04-22 13:56 | 26.82236 | 50.58593 | 35847 ft | 424 kts | 288° |
| 2026-04-22 13:57 | 26.84365 | 50.52393 | 35841 ft | 424 kts | 288° |
| 2026-04-22 13:57 | 26.86452 | 50.46260 | 35850 ft | 424 kts | 289° |
| 2026-04-22 13:58 | 26.89143 | 50.40300 | 35854 ft | 429 kts | 297° |
| 2026-04-22 13:58 | 26.92290 | 50.34669 | 35847 ft | 428 kts | 297° |
| 2026-04-22 13:59 | 26.95425 | 50.29006 | 35862 ft | 427 kts | 297° |
| 2026-04-22 13:59 | 26.98530 | 50.23344 | 35859 ft | 426 kts | 297° |
| 2026-04-22 14:00 | 27.01625 | 50.17685 | 35863 ft | 425 kts | 297° |
| 2026-04-22 14:00 | 27.04785 | 50.12090 | 35874 ft | 426 kts | 300° |
| 2026-04-22 14:01 | 27.08572 | 50.06915 | 35886 ft | 430 kts | 305° |
| 2026-04-22 14:01 | 27.12488 | 50.01836 | 35869 ft | 430 kts | 304° |
| 2026-04-22 14:02 | 27.16376 | 49.96749 | 35864 ft | 429 kts | 304° |
| 2026-04-22 14:02 | 27.20247 | 49.91655 | 35868 ft | 428 kts | 304° |
| 2026-04-22 14:03 | 27.24101 | 49.86571 | 35861 ft | 425 kts | 304° |
| 2026-04-22 14:03 | 27.26013 | 49.84047 | 35666 ft | 423 kts | 304° |
| 2026-04-22 14:03 | 27.27926 | 49.81518 | 35185 ft | 428 kts | 304° |
| 2026-04-22 14:04 | 27.29856 | 49.78964 | 34687 ft | 427 kts | 304° |
| 2026-04-22 14:04 | 27.31796 | 49.76453 | 34242 ft | 426 kts | 307° |
| 2026-04-22 14:04 | 27.33922 | 49.74131 | 33769 ft | 427 kts | 313° |
| 2026-04-22 14:04 | 27.36250 | 49.72047 | 33239 ft | 427 kts | 316° |
| 2026-04-22 14:05 | 27.38598 | 49.70020 | 32719 ft | 424 kts | 316° |
| 2026-04-22 14:05 | 27.40957 | 49.67964 | 32271 ft | 438 kts | 315° |
| 2026-04-22 14:05 | 27.45907 | 49.63597 | 31316 ft | 458 kts | 315° |
| 2026-04-22 14:06 | 27.48424 | 49.61376 | 30844 ft | 463 kts | 316° |
| 2026-04-22 14:06 | 27.50973 | 49.59124 | 30380 ft | 467 kts | 316° |
| 2026-04-22 14:06 | 27.53499 | 49.56893 | 29906 ft | 467 kts | 316° |
| 2026-04-22 14:06 | 27.56054 | 49.54636 | 29376 ft | 465 kts | 316° |
| 2026-04-22 14:07 | 27.58590 | 49.52394 | 28857 ft | 463 kts | 316° |
| 2026-04-22 14:07 | 27.61116 | 49.50159 | 28330 ft | 460 kts | 316° |
| 2026-04-22 14:07 | 27.63628 | 49.47933 | 27813 ft | 457 kts | 316° |
| 2026-04-22 14:07 | 27.66123 | 49.45719 | 27301 ft | 455 kts | 315° |
| 2026-04-22 14:08 | 27.68600 | 49.43519 | 26809 ft | 452 kts | 315° |
| 2026-04-22 14:08 | 27.71059 | 49.41333 | 26321 ft | 449 kts | 315° |
| 2026-04-22 14:08 | 27.73503 | 49.39159 | 25837 ft | 446 kts | 315° |
| 2026-04-22 14:08 | 27.75934 | 49.36995 | 25379 ft | 443 kts | 315° |
| 2026-04-22 14:09 | 27.78347 | 49.34847 | 24900 ft | 440 kts | 315° |
| 2026-04-22 14:09 | 27.80743 | 49.32713 | 24458 ft | 437 kts | 315° |
| 2026-04-22 14:09 | 27.83123 | 49.30591 | 23990 ft | 435 kts | 315° |
| 2026-04-22 14:09 | 27.85488 | 49.28481 | 23551 ft | 432 kts | 315° |
| 2026-04-22 14:10 | 27.87837 | 49.26385 | 23041 ft | 429 kts | 315° |
| 2026-04-22 14:10 | 27.90175 | 49.24297 | 22521 ft | 426 kts | 315° |
| 2026-04-22 14:10 | 27.92493 | 49.22226 | 22009 ft | 424 kts | 315° |
| 2026-04-22 14:10 | 27.94796 | 49.20167 | 21528 ft | 421 kts | 315° |
| 2026-04-22 14:11 | 27.97084 | 49.18121 | 21029 ft | 418 kts | 315° |
| 2026-04-22 14:11 | 27.99356 | 49.16087 | 20535 ft | 415 kts | 315° |
| 2026-04-22 14:11 | 28.01615 | 49.14063 | 20057 ft | 413 kts | 315° |
| 2026-04-22 14:11 | 28.03858 | 49.12053 | 19586 ft | 410 kts | 315° |
| 2026-04-22 14:12 | 28.06090 | 49.10052 | 19118 ft | 408 kts | 315° |
| 2026-04-22 14:12 | 28.08314 | 49.08056 | 18665 ft | 406 kts | 315° |
| 2026-04-22 14:12 | 28.10524 | 49.06072 | 18219 ft | 405 kts | 315° |
| 2026-04-22 14:12 | 28.12727 | 49.04094 | 17714 ft | 403 kts | 315° |
| 2026-04-22 14:13 | 28.14919 | 49.02124 | 17193 ft | 401 kts | 315° |
| 2026-04-22 14:13 | 28.17102 | 49.00161 | 16703 ft | 399 kts | 315° |
| 2026-04-22 14:13 | 28.19270 | 48.98211 | 16196 ft | 396 kts | 315° |
| 2026-04-22 14:13 | 28.21413 | 48.96284 | 15703 ft | 391 kts | 315° |
| 2026-04-22 14:14 | 28.23527 | 48.94383 | 15224 ft | 386 kts | 315° |
| 2026-04-22 14:14 | 28.25618 | 48.92500 | 14732 ft | 381 kts | 315° |
| 2026-04-22 14:14 | 28.27679 | 48.90643 | 14295 ft | 377 kts | 316° |
| 2026-04-22 14:14 | 28.29695 | 48.88824 | 13897 ft | 372 kts | 316° |
| 2026-04-22 14:15 | 28.31734 | 48.86985 | 13525 ft | 368 kts | 316° |
| 2026-04-22 14:15 | 28.33738 | 48.85173 | 13191 ft | 369 kts | 316° |
| 2026-04-22 14:15 | 28.35755 | 48.83347 | 12948 ft | 371 kts | 316° |
| 2026-04-22 14:15 | 28.37780 | 48.81514 | 12693 ft | 373 kts | 316° |
| 2026-04-22 14:16 | 28.39781 | 48.79703 | 12442 ft | 372 kts | 317° |
| 2026-04-22 14:16 | 28.41803 | 48.77874 | 12207 ft | 371 kts | 317° |
| 2026-04-22 14:16 | 28.43817 | 48.76052 | 11963 ft | 370 kts | 317° |
| 2026-04-22 14:16 | 28.45829 | 48.74230 | 11708 ft | 369 kts | 317° |
| 2026-04-22 14:17 | 28.47849 | 48.72399 | 11209 ft | 375 kts | 318° |
| 2026-04-22 14:17 | 28.49884 | 48.70553 | 10706 ft | 373 kts | 318° |
| 2026-04-22 14:17 | 28.51902 | 48.68723 | 10237 ft | 369 kts | 319° |
| 2026-04-22 14:17 | 28.53897 | 48.66914 | 9772 ft | 365 kts | 319° |
| 2026-04-22 14:18 | 28.55874 | 48.65119 | 9271 ft | 362 kts | 319° |
| 2026-04-22 14:18 | 28.57830 | 48.63342 | 8779 ft | 358 kts | 320° |
| 2026-04-22 14:18 | 28.59766 | 48.61587 | 8392 ft | 353 kts | 320° |
| 2026-04-22 14:18 | 28.61679 | 48.59852 | 8022 ft | 349 kts | 321° |
| 2026-04-22 14:19 | 28.63568 | 48.58133 | 7651 ft | 348 kts | 321° |
| 2026-04-22 14:19 | 28.65462 | 48.56405 | 7296 ft | 350 kts | 321° |
| 2026-04-22 14:19 | 28.67368 | 48.54663 | 6947 ft | 352 kts | 322° |
| 2026-04-22 14:19 | 28.69277 | 48.52921 | 6594 ft | 352 kts | 322° |
| 2026-04-22 14:20 | 28.73086 | 48.49447 | 5858 ft | 346 kts | 321° |
| 2026-04-22 14:20 | 28.74713 | 48.47485 | 5459 ft | 340 kts | 308° |
| 2026-04-22 14:20 | 28.76048 | 48.45283 | 5097 ft | 335 kts | 306° |
| 2026-04-22 14:21 | 28.78674 | 48.40957 | 4305 ft | 329 kts | 307° |
| 2026-04-22 14:21 | 28.79986 | 48.38833 | 3898 ft | 327 kts | 307° |
| 2026-04-22 14:22 | 28.82581 | 48.34668 | 3138 ft | 322 kts | 308° |
| 2026-04-22 14:22 | 28.83877 | 48.32593 | 2982 ft | 311 kts | 308° |
| 2026-04-22 14:22 | 28.86254 | 48.28792 | 2968 ft | 280 kts | 308° |
| 2026-04-22 14:23 | 28.87357 | 48.27028 | 2964 ft | 267 kts | 308° |
| 2026-04-22 14:23 | 28.88398 | 48.25363 | 2974 ft | 257 kts | 308° |
| 2026-04-22 14:23 | 28.89430 | 48.23714 | 2982 ft | 251 kts | 309° |
| 2026-04-22 14:23 | 28.90425 | 48.22122 | 3021 ft | 246 kts | 309° |
| 2026-04-22 14:24 | 28.91420 | 48.20533 | 2982 ft | 244 kts | 309° |
| 2026-04-22 14:24 | 28.92396 | 48.18966 | 2962 ft | 241 kts | 308° |
| 2026-04-22 14:24 | 28.93367 | 48.17411 | 2972 ft | 241 kts | 308° |
| 2026-04-22 14:24 | 28.94338 | 48.15850 | 3016 ft | 241 kts | 309° |
| 2026-04-22 14:25 | 28.95328 | 48.14286 | 2981 ft | 244 kts | 309° |
| 2026-04-22 14:25 | 28.96296 | 48.12746 | 3000 ft | 233 kts | 309° |
| 2026-04-22 14:25 | 28.97237 | 48.11317 | 2967 ft | 216 kts | 318° |
| 2026-04-22 14:25 | 28.98362 | 48.10231 | 2973 ft | 210 kts | 327° |
| 2026-04-22 14:26 | 28.99528 | 48.09227 | 2974 ft | 210 kts | 327° |
| 2026-04-22 14:26 | 29.00699 | 48.08212 | 2784 ft | 214 kts | 326° |
| 2026-04-22 14:26 | 29.01892 | 48.07163 | 2365 ft | 218 kts | 326° |
| 2026-04-22 14:26 | 29.03057 | 48.06127 | 2186 ft | 203 kts | 326° |
| 2026-04-22 14:27 | 29.04112 | 48.05181 | 2173 ft | 187 kts | 326° |
| 2026-04-22 14:27 | 29.05118 | 48.04279 | 2199 ft | 178 kts | 326° |
| 2026-04-22 14:27 | 29.06073 | 48.03422 | 2190 ft | 171 kts | 327° |
| 2026-04-22 14:27 | 29.07055 | 48.02666 | 2212 ft | 172 kts | 334° |
| 2026-04-22 14:28 | 29.08114 | 48.02036 | 2189 ft | 170 kts | 338° |
| 2026-04-22 14:28 | 29.09148 | 48.01473 | 2166 ft | 159 kts | 339° |
| 2026-04-22 14:28 | 29.10149 | 48.00940 | 2084 ft | 162 kts | 340° |
| 2026-04-22 14:28 | 29.11158 | 48.00402 | 1846 ft | 157 kts | 339° |
| 2026-04-22 14:29 | 29.12130 | 47.99883 | 1660 ft | 152 kts | 339° |
| 2026-04-22 14:29 | 29.13090 | 47.99375 | 1475 ft | 153 kts | 339° |
| 2026-04-22 14:29 | 29.14072 | 47.98852 | 1252 ft | 157 kts | 340° |
| 2026-04-22 14:29 | 29.15041 | 47.98333 | 1053 ft | 152 kts | 339° |
| 2026-04-22 14:30 | 29.16008 | 47.97816 | 865 ft | 154 kts | 341° |
| 2026-04-22 14:30 | 29.16953 | 47.97314 | 675 ft | 150 kts | 340° |
| 2026-04-22 14:30 | 29.17899 | 47.96804 | 502 ft | 151 kts | 338° |
| 2026-04-22 14:30 | 29.18843 | 47.96307 | 273 ft | 147 kts | 338° |
| 2026-04-22 14:31 | 29.19726 | 47.95849 | 223 ft | 127 kts | 334° |
| 2026-04-22 14:31 | 29.20415 | 47.95480 | 211 ft | 92 kts | 335° |
| 2026-04-22 14:31 | 29.20896 | 47.95227 | 214 ft | 62 kts | 336° |
| 2026-04-22 14:31 | 29.21251 | 47.95056 | 221 ft | 39 kts | 353° |
| 2026-04-22 14:32 | 29.21495 | 47.95063 | 223 ft | 31 kts | 2° |
| 2026-04-22 14:32 | 29.21705 | 47.95056 | 220 ft | 30 kts | 351° |
| 2026-04-22 14:32 | 29.21891 | 47.94952 | 215 ft | 26 kts | 334° |
| 2026-04-22 14:32 | 29.21904 | 47.94945 | 217 ft | 0 kts | 334° |
| 2026-04-22 14:33 | 29.17742 | 47.96888 | 538 ft | 151 kts | 338° |
| 2026-04-22 14:33 | 29.18605 | 47.96433 | 322 ft | 148 kts | 338° |
| 2026-04-22 14:33 | 29.19514 | 47.95958 | 222 ft | 133 kts | 337° |
| 2026-04-22 14:33 | 29.21906 | 47.94943 | 217 ft | 0 kts | 337° |
| 2026-04-22 14:34 | 29.21943 | 47.94944 | 220 ft | 18 kts | 15° |
| 2026-04-22 14:34 | 29.22075 | 47.95122 | 180 ft | 46 kts | 53° |
| 2026-04-22 14:34 | 29.22282 | 47.95489 | 170 ft | 62 kts | 63° |